Aeroporto :
LOGIN :

Iscrizione | Disclaimer

   EN    FR    IT 

 










Sommario :    VFR   VFR Marginale   IFR   IFR Intensivo   IFR Molto Intensivo
Visibilità : 
Base nubi : 
>= 8 km
>= 3000ft
5 / 8 km
1000 / 3000 ft
1500m / 5 km
500 / 1000 ft
800 / 1500m
200 / 500 ft
< 800m
< 200 ft
Simboli :   Temporali  Nebbia  Neve Forte  Precipitazioni Forti  Vento > 20 kt
SIGMETs :   Varie  Temporali  Ghiacco  Turbolenza  Onda orograficha  Ceneri Vulcaniche






- Altitudine del aeroporto : 495 ft
- Codice IATA : BUD


LHBP - Budapest Ferihegy

ULTIMO METAR :
  • 121800Z 10011KT 9999 -RA NSC 11/09 Q1005 NOSIG

METARs OBSOLETI :
  • 121730Z 10009KT 9999 -RA NSC 11/09 Q1006 NOSIG
  • 121700Z 08007KT 9999 -RA NSC 11/08 Q1006 NOSIG
  • 121630Z 10010KT 9999 -RA NSC 11/08 Q1006 NOSIG
  • 121600Z 08014KT 9999 -RA NSC 11/08 Q1005 WS R13L NOSIG
  • 121530Z 10011G21KT 060V150 CAVOK 10/08 Q1006 NOSIG

TAF TAF LHBP
Valido dal 12 a 18 ore il 13 a 18 ore UTC


121715Z 1218/1318 11009KT CAVOK
TEMPO 1303/1311 5000 SHRA RA BKN009 OVC040
TEMPO 1315/1318 14012KT SHRA RA FEW040 BKN090



MetMap, La meteo Aeronautica in un colpo d'occhio ! - Copyright ORBIFLY Dicembre 2007 - Disclaimer

ORBIFLY MET'MAP TEAM :

Programmazione e sviluppo : Alexandra Zaïnal
Concezione e sviluppo : Baudouin d'Aumeries
Co-Programmazione e sviluppo : Marc-Olivier Méhu
Supporto tecnico e logistico : Manuel Goepfert
Aiuto per la traduzione : Arnaldo La Scala

Contatto : metmap@orbifly.com




FONTI E CREDITI :

   NOAA